Stations météo

réclame
Mon MeteoGroup
Villardeciervos, Espagne (8125): Température de l'air & dewpoint: 13.11.2017 18:00:00 - 19.11.2017 18:00:00 (CET)Villardeciervos, Espagne (8125): Vitesse du vent & gusts: 13.11.2017 18:00:00 - 19.11.2017 18:00:00 (CET)Villardeciervos, Espagne (8125): Direction du vent: 13.11.2017 18:00:00 - 19.11.2017 18:00:00 (CET)Villardeciervos, Espagne (8125): visibility: 13.11.2017 18:00:00 - 19.11.2017 18:00:00 (CET)Villardeciervos, Espagne (8125): Ensoleillement: 13.11.2017 18:00:00 - 19.11.2017 18:00:00 (CET)Villardeciervos, Espagne (8125): Quantités de précipitations: 13.11.2017 18:00:00 - 19.11.2017 18:00:00 (CET)
Date & Time tt [°C] td [°C] ff [km/h] ff [knt] fx [km/h] fx [knt] dd vv [km] sd [min] rr [mm]
19.11.2017 18:00:00 11,0 -5,1 3 2 9 5 SSW 20 26 0,0
19.11.2017 17:00:00 16,6 -7,8 4 2 10 6 ESE 20 60 0,0
19.11.2017 16:00:00 17,5 -9,4 4 2 14 8 ENE 20 60 0,0
19.11.2017 15:00:00 16,3 -11,2 7 4 18 10 E 20 60 0,0
19.11.2017 14:00:00 15,3 -4,8 5 3 16 9 ENE 20 60 0,0
19.11.2017 13:00:00 13,3 -1,4 6 3 14 8 ENE 20 60 -
19.11.2017 12:00:00 10,3 0,6 6 3 12 6 E 20 60 0,0
19.11.2017 11:00:00 7,9 1,7 2 1 4 2 NNE 20 60 0,0
19.11.2017 10:00:00 2,7 -0,5 0 0 5 3 N 20 60 0,0
19.11.2017 09:00:00 -2,2 -3,6 1 1 4 2 NE 20 26 0,0
19.11.2017 08:00:00 -3,6 -4,8 3 2 5 3 S 20 0 0,0
19.11.2017 07:00:00 -3,9 -5,4 0 0 3 1 N 20 0 -
19.11.2017 06:00:00 -3,1 -4,5 4 2 6 4 SSE 20 0 0,0
19.11.2017 05:00:00 -2,6 -3,9 2 1 4 2 S 20 0 0,0
19.11.2017 04:00:00 -2,5 -3,9 1 1 5 3 NW 20 0 0,0
19.11.2017 03:00:00 -2,0 -3,3 1 1 5 3 NE 20 0 0,0
19.11.2017 02:00:00 -1,1 -2,2 5 3 7 4 S 20 0 0,0
19.11.2017 01:00:00 -1,5 -3,0 3 1 5 3 S 20 0 -
19.11.2017 00:00:00 -1,6 -3,3 3 2 5 3 S 20 0 0,0
18.11.2017 23:00:00 -0,2 -2,5 2 1 11 6 ESE 20 0 0,0
18.11.2017 22:00:00 0,8 -1,7 3 2 8 4 NW 20 0 0,0
18.11.2017 21:00:00 2,1 -1,2 2 1 4 2 S 20 0 0,0
18.11.2017 20:00:00 5,2 0,2 3 1 8 4 SW 20 0 0,0
18.11.2017 19:00:00 7,0 0,6 5 3 8 4 S 20 0 -
18.11.2017 18:00:00 12,1 0,9 3 1 8 5 S 20 27 0,0
18.11.2017 17:00:00 15,8 -0,5 6 3 16 9 E 20 60 0,0
18.11.2017 16:00:00 16,5 -0,3 7 4 18 10 ENE 20 60 0,0
18.11.2017 15:00:00 16,3 -1,0 6 3 17 9 E 20 60 0,0
18.11.2017 14:00:00 15,2 -1,0 9 5 21 11 E 20 60 0,0
18.11.2017 13:00:00 14,1 1,1 8 4 23 13 E 20 60 -
18.11.2017 12:00:00 12,2 0,9 7 4 16 9 ENE 20 60 0,0
18.11.2017 11:00:00 10,0 1,1 1 1 4 2 W 20 60 0,0
18.11.2017 10:00:00 4,4 -0,3 1 1 4 2 ENE 20 60 0,0
18.11.2017 09:00:00 -1,0 -2,5 1 1 3 2 SE 20 25 0,0
18.11.2017 08:00:00 -2,5 -4,2 0 0 5 3 N 20 0 0,0
18.11.2017 07:00:00 -2,1 -3,6 2 1 5 3 S 20 0 -
18.11.2017 06:00:00 -2,3 -3,9 0 0 5 3 N 20 0 0,0
18.11.2017 05:00:00 -1,9 -3,6 2 1 4 2 SSW 20 0 0,0
18.11.2017 04:00:00 -1,2 -2,7 1 1 4 2 N 20 0 0,0
18.11.2017 03:00:00 -1,1 -3,0 1 1 4 2 SE 20 0 0,0
18.11.2017 02:00:00 -0,3 -2,5 1 1 5 3 SSW 20 0 0,0
18.11.2017 01:00:00 0,4 -2,0 4 2 7 4 S 20 0 -
18.11.2017 00:00:00 1,4 -2,0 3 1 8 4 S 20 0 0,0
17.11.2017 23:00:00 2,4 -1,0 1 1 3 2 SSW 20 0 0,0
17.11.2017 22:00:00 3,5 -0,7 1 1 4 2 S 20 0 0,0
17.11.2017 21:00:00 4,9 -0,5 2 1 4 2 W 20 0 0,0
17.11.2017 20:00:00 6,8 -0,3 2 1 8 4 S 20 0 0,0
17.11.2017 19:00:00 9,8 -0,3 4 2 8 5 SSW 20 0 -
17.11.2017 18:00:00 13,8 0,4 3 2 9 5 SSE 20 28 0,0
17.11.2017 17:00:00 17,1 -1,2 4 2 9 5 E 20 58 0,0
17.11.2017 16:00:00 18,4 -0,5 4 2 10 5 NNW 20 60 0,0
17.11.2017 15:00:00 18,3 0,0 3 2 9 5 NW 20 60 0,0
17.11.2017 14:00:00 16,8 -1,4 5 3 12 6 E 20 60 0,0
17.11.2017 13:00:00 16,0 -1,2 5 3 10 6 E 20 60 -
17.11.2017 12:00:00 12,9 1,3 4 2 8 4 NNW 20 60 0,0
17.11.2017 11:00:00 10,1 2,3 2 1 4 2 NNW 20 60 0,0
17.11.2017 10:00:00 4,0 -0,5 0 0 3 2 N 20 60 0,0
17.11.2017 09:00:00 -1,0 -2,7 1 1 3 2 NE 20 26 0,0
17.11.2017 08:00:00 -2,8 -4,5 0 0 6 4 N 20 0 0,0
17.11.2017 07:00:00 -2,5 -4,2 4 2 6 3 NNW 20 0 -
17.11.2017 06:00:00 -2,5 -4,5 0 0 5 3 N 20 0 0,0
17.11.2017 05:00:00 -2,1 -3,9 3 2 4 2 NNW 20 0 0,0
17.11.2017 04:00:00 -1,4 -3,3 1 1 4 2 NW 20 0 0,0
17.11.2017 03:00:00 -1,6 -3,6 3 2 5 3 S 20 0 0,0
17.11.2017 02:00:00 -0,7 -3,0 3 2 6 4 NW 20 0 0,0
17.11.2017 01:00:00 0,0 -2,7 2 1 4 2 ESE 20 0 -
17.11.2017 00:00:00 0,7 -2,7 1 1 4 2 SSW 20 0 0,0
16.11.2017 23:00:00 2,1 -2,0 2 1 5 3 S 20 0 0,0
16.11.2017 22:00:00 2,2 -1,7 3 1 5 3 SSE 20 0 0,0
16.11.2017 21:00:00 3,7 -2,0 0 0 6 4 N 20 0 0,0
16.11.2017 20:00:00 5,3 -1,2 4 2 7 4 S 20 0 0,0
16.11.2017 19:00:00 9,0 -0,7 4 2 6 3 SW 20 0 -
16.11.2017 18:00:00 14,2 -1,0 3 1 12 7 S 20 29 0,0
16.11.2017 17:00:00 18,2 -1,7 5 3 15 8 NE 20 60 0,0
16.11.2017 16:00:00 19,1 -2,5 5 3 14 7 ENE 20 60 0,0
16.11.2017 15:00:00 18,7 -3,6 6 3 15 8 ENE 20 60 0,0
16.11.2017 14:00:00 17,7 -2,5 5 3 17 9 NNE 20 60 0,0
16.11.2017 13:00:00 16,1 -2,0 6 3 18 10 E 20 60 -
16.11.2017 12:00:00 13,9 -1,0 5 3 13 7 ENE 20 60 0,0
16.11.2017 11:00:00 10,1 0,9 1 1 7 4 NE 20 60 0,0
16.11.2017 10:00:00 4,9 0,0 2 1 5 3 N 20 60 0,0
16.11.2017 09:00:00 -1,1 -3,0 2 1 5 3 NNE 20 27 0,0
16.11.2017 08:00:00 -2,7 -4,2 1 1 4 2 SSE 20 0 0,0
16.11.2017 07:00:00 -2,7 -4,2 1 1 5 3 S 20 0 -
16.11.2017 06:00:00 -2,2 -3,9 1 1 6 3 NNW 20 0 0,0
16.11.2017 05:00:00 -2,1 -3,9 3 2 5 3 S 20 0 0,0
16.11.2017 04:00:00 -1,6 -3,6 1 1 5 3 SSE 20 0 0,0
16.11.2017 03:00:00 -1,2 -3,6 0 0 4 2 N 20 0 0,0
16.11.2017 02:00:00 -0,8 -3,3 1 1 6 3 S 20 0 0,0
16.11.2017 01:00:00 -1,1 -3,9 2 1 5 3 W 20 0 -
16.11.2017 00:00:00 0,2 -3,3 2 1 5 3 NNE 20 0 0,0
15.11.2017 23:00:00 0,8 -3,3 2 1 5 3 WSW 20 0 0,0
15.11.2017 22:00:00 2,0 -2,7 2 1 8 4 SSE 20 0 0,0
15.11.2017 21:00:00 4,3 -2,2 3 1 5 3 SSW 20 0 0,0
15.11.2017 20:00:00 6,9 -2,5 1 1 10 5 N 20 0 0,0
15.11.2017 19:00:00 8,2 -2,7 6 4 10 5 SSW 20 0 -
15.11.2017 18:00:00 13,1 -4,2 2 1 10 5 S 20 30 0,0
15.11.2017 17:00:00 17,2 -7,5 5 3 11 6 E 20 60 0,0
15.11.2017 16:00:00 18,1 -6,0 3 2 11 6 ENE 20 60 0,0
15.11.2017 15:00:00 17,3 -6,7 4 2 14 8 ENE 20 60 0,0
15.11.2017 14:00:00 16,1 -6,4 8 4 16 9 E 20 60 0,0
15.11.2017 13:00:00 15,0 -4,8 4 2 13 7 ENE 20 60 -
15.11.2017 12:00:00 12,7 -4,2 5 3 12 7 E 20 60 0,0
15.11.2017 11:00:00 7,4 -0,3 0 0 8 4 N 20 59 0,0
15.11.2017 10:00:00 2,0 -1,7 3 1 8 4 N 20 59 0,0
15.11.2017 09:00:00 -1,9 -4,2 3 2 6 3 E 20 27 0,0
15.11.2017 08:00:00 -4,0 -6,0 1 1 5 3 W 20 0 0,0
15.11.2017 07:00:00 -3,8 -5,7 1 1 6 3 SE 20 0 -
15.11.2017 06:00:00 -3,4 -5,4 3 1 4 2 NNW 20 0 0,0
15.11.2017 05:00:00 -2,1 -4,2 3 1 7 4 S 20 0 0,0
15.11.2017 04:00:00 -3,6 -5,4 4 2 6 3 SSE 20 0 0,0
15.11.2017 03:00:00 -3,1 -4,8 3 2 5 3 S 20 0 0,0
15.11.2017 02:00:00 -2,3 -4,5 1 1 5 3 S 20 0 0,0
15.11.2017 01:00:00 -1,7 -3,9 3 1 6 3 WNW 20 0 -
15.11.2017 00:00:00 -0,7 -2,5 4 2 6 4 S 20 0 0,0
14.11.2017 23:00:00 -0,4 -2,7 4 2 5 3 SSE 20 0 0,0
14.11.2017 22:00:00 0,3 -3,0 3 2 5 3 SSW 20 0 0,0
14.11.2017 21:00:00 2,1 -2,2 2 1 5 3 SSW 20 0 0,0
14.11.2017 20:00:00 3,6 -1,4 2 1 6 4 W 20 0 0,0
14.11.2017 19:00:00 6,5 -1,4 1 1 6 3 S 20 0 -
14.11.2017 18:00:00 9,6 -1,4 4 2 18 10 NE 20 32 0,0
14.11.2017 17:00:00 12,0 -2,2 8 4 24 13 ENE 20 60 0,0
14.11.2017 16:00:00 12,3 -2,0 8 5 23 12 NE 20 60 0,0
14.11.2017 15:00:00 11,9 -1,2 8 5 24 13 NE 20 60 0,0
14.11.2017 14:00:00 10,6 -1,7 7 4 20 11 ENE 20 60 0,0
14.11.2017 13:00:00 9,1 -1,0 8 5 27 14 ENE 20 60 -
14.11.2017 12:00:00 7,5 -0,3 10 5 24 13 E 20 60 0,0
14.11.2017 11:00:00 5,3 0,2 7 4 19 10 ENE 20 60 0,0
14.11.2017 10:00:00 1,8 -0,7 4 2 8 4 ESE 20 60 0,0
14.11.2017 09:00:00 -3,3 -4,5 5 3 8 4 SE 20 17 0,0
14.11.2017 08:00:00 -3,8 -4,8 2 1 9 5 S 20 0 0,0
14.11.2017 07:00:00 -3,3 -4,3 3 1 4 2 SSW - 0 -
14.11.2017 06:00:00 -3,3 -4,5 3 2 8 5 SSE 20 0 0,0
14.11.2017 05:00:00 -3,2 -4,5 3 2 5 3 WNW 20 0 0,0
14.11.2017 04:00:00 -3,3 -5,1 3 2 5 3 S 20 0 0,0
14.11.2017 03:00:00 -1,7 -3,0 2 1 5 3 SSW 20 0 0,0
14.11.2017 02:00:00 -1,7 -3,9 1 1 5 3 SSW 20 0 0,0
14.11.2017 01:00:00 -0,3 -2,2 3 1 7 4 WNW 20 0 -
14.11.2017 00:00:00 0,0 -2,2 5 3 7 4 NNW 20 0 0,0
13.11.2017 23:00:00 0,5 -2,5 1 1 7 4 WNW 20 0 0,0
13.11.2017 22:00:00 1,8 -1,7 3 2 8 4 ENE 20 0 0,0
13.11.2017 21:00:00 3,1 -2,0 4 2 14 7 S 20 0 0,0
13.11.2017 20:00:00 4,5 -2,5 3 2 9 5 E 19 0 0,0
13.11.2017 19:00:00 7,0 -3,0 3 2 12 7 ENE 20 0 -
13.11.2017 18:00:00 9,9 -3,6 5 3 24 13 ENE 20 32 0,0

tt = Température de l'air
td = dewpoint
ff = Vitesse du vent
fx = gusts
dd = Direction du vent
vv = visibility
sd = Ensoleillement
rr = Quantités de précipitations

stations d'obs. à proximité